Drew Devall — WDB6048 — position and weather

sailwx.info

Track history (hours):
 
Tides and Currents Weather Stations Pressure Air Temp Water Temp Dewpoint Dewpoint Depression Visibility Wind Speed Wind Dir Waves Ship Positions

Drew Devall

Owner: Drew Devall, Sulphur, LA. More information available from US FCC via Universal Licensing System and Coast Guard Vessel Documentation Center.

Last reported at 2017-Oct-18 12:45 UTC. Time now 2017-Oct-19 01:45 UTC.
Position N 29°46' W 095°05'.

Length 17 m; draft 3 m.

Type: Towing. MMSI: 366916860.

Date/timePositionNaut miles runAvg speedWind from/ knotsBaromVisibWave heightAir tempDewpointWater temp
2017-Oct-18 12:45N 29°46' W 095°05'3 0.1
2017-Oct-17 16:07N 29°44' W 095°03'2 7.1
2017-Oct-17 15:46N 29°42' W 095°01'2 8.1
2017-Oct-17 15:31N 29°41' W 094°59'3 5.8
2017-Oct-17 14:56N 29°41' W 094°55'1 0.1
2017-Oct-17 05:08N 29°42' W 094°55'2 4.2
2017-Oct-17 04:42N 29°40' W 094°56'2 6.4
2017-Oct-17 04:24N 29°41' W 094°58'3 5.7
2017-Oct-17 03:55N 29°42' W 095°01'0 0.0
2017-Oct-17 01:18N 29°42' W 095°01'2 7.3
2017-Oct-17 01:00N 29°41' W 094°59'4 8.0
2017-Oct-17 00:30N 29°37' W 094°58'3 6.3
2017-Oct-17 00:00N 29°37' W 095°01'0 0.4
2017-Oct-16 23:31N 29°36' W 095°01'0 0.1
2017-Oct-16 23:00N 29°36' W 095°01'0 0.0
2017-Oct-16 22:30N 29°36' W 095°01'0 0.0
2017-Oct-16 22:00N 29°36' W 095°01'0 0.0
2017-Oct-16 21:30N 29°36' W 095°01'0 0.0
2017-Oct-16 21:00N 29°36' W 095°01'0 0.0
2017-Oct-16 20:30N 29°36' W 095°01'0 0.0
2017-Oct-16 20:00N 29°36' W 095°01'0 0.0
2017-Oct-16 19:30N 29°36' W 095°01'0 0.0
2017-Oct-16 19:00N 29°36' W 095°01'0 0.0
2017-Oct-16 18:30N 29°36' W 095°01'0 0.0
2017-Oct-16 18:00N 29°36' W 095°01'0 0.0
2017-Oct-16 17:30N 29°36' W 095°01'0 0.0
2017-Oct-16 17:00N 29°36' W 095°01'0 0.0
2017-Oct-16 16:30N 29°36' W 095°01'0 0.0
2017-Oct-16 16:00N 29°36' W 095°01'0 0.0
2017-Oct-16 15:30N 29°36' W 095°01'0 0.0
2017-Oct-16 15:00N 29°36' W 095°01'0 0.0
2017-Oct-16 14:30N 29°36' W 095°01'0 0.0
2017-Oct-16 13:30N 29°36' W 095°01'0 0.0
2017-Oct-16 13:00N 29°36' W 095°01'0 0.3
2017-Oct-16 12:26N 29°37' W 095°01'0 0.0
2017-Oct-16 12:00N 29°37' W 095°01'0 0.0
2017-Oct-16 11:24N 29°37' W 095°01'0 0.0
2017-Oct-16 10:53N 29°37' W 095°01'0 0.0
2017-Oct-16 10:24N 29°37' W 095°01'0 0.0
2017-Oct-16 09:58N 29°37' W 095°01'0 0.0
2017-Oct-16 09:30N 29°37' W 095°01'2 3.5
2017-Oct-16 09:00N 29°37' W 094°59'3 5.6
2017-Oct-16 08:30N 29°40' W 094°58'5 1.0
2017-Oct-16 03:28N 29°44' W 095°02'3 6.5
2017-Oct-16 03:00N 29°42' W 094°59'3 6.1
2017-Oct-16 02:30N 29°40' W 094°56'2 3.3
2017-Oct-16 01:58N 29°42' W 094°56'1 0.1
2017-Oct-15 14:57N 29°42' W 094°55'4 4.6
2017-Oct-15 13:59N 29°42' W 095°00'3 0.1
2017-Oct-13 22:16N 29°44' W 095°03'2 6.6
2017-Oct-13 21:57N 29°42' W 095°01'3 6.6
2017-Oct-13 21:30N 29°40' W 094°59'4 8.1
2017-Oct-13 21:00N 29°36' W 094°57'4 8.4
2017-Oct-13 20:30N 29°33' W 094°54'65 5.3
2017-Oct-13 08:18N 30°02' W 093°48'0 0.0
2017-Oct-13 08:00N 30°02' W 093°48'0 0.0
2017-Oct-13 07:30N 30°02' W 093°48'0 0.0
2017-Oct-13 06:56N 30°02' W 093°48'  
2017-Oct-09 01:22N 29°55' W 093°53'3 9.2
2017-Oct-09 00:59N 29°53' W 093°55'56 6.0
2017-Oct-08 15:43N 29°34' W 094°55'2 8.4
2017-Oct-08 15:30N 29°36' W 094°57'4 8.2
2017-Oct-08 15:01N 29°39' W 094°58'4 7.9
2017-Oct-08 14:30N 29°43' W 095°01'  
Track history (hours):
 
Tides and Currents Weather Stations Pressure Air Temp Water Temp Dewpoint Dewpoint Depression Visibility Wind Speed Wind Dir Waves Ship Positions

Drew Devall

Owner: Drew Devall, Sulphur, LA. More information available from US FCC via Universal Licensing System and Coast Guard Vessel Documentation Center.

Last reported at 2017-Oct-18 12:45 UTC. Time now 2017-Oct-19 01:45 UTC.
Position N 29°46' W 095°05'.

Length 17 m; draft 3 m.

Type: Towing. MMSI: 366916860.

Date/timePositionNaut miles runAvg speedWind from/ knotsBaromVisibWave heightAir tempDewpointWater temp
2017-Oct-18 12:45N 29°46' W 095°05'3 0.1
2017-Oct-17 16:07N 29°44' W 095°03'2 7.1
2017-Oct-17 15:46N 29°42' W 095°01'2 8.1
2017-Oct-17 15:31N 29°41' W 094°59'3 5.8
2017-Oct-17 14:56N 29°41' W 094°55'1 0.1
2017-Oct-17 05:08N 29°42' W 094°55'2 4.2
2017-Oct-17 04:42N 29°40' W 094°56'2 6.4
2017-Oct-17 04:24N 29°41' W 094°58'3 5.7
2017-Oct-17 03:55N 29°42' W 095°01'0 0.0
2017-Oct-17 01:18N 29°42' W 095°01'2 7.3
2017-Oct-17 01:00N 29°41' W 094°59'4 8.0
2017-Oct-17 00:30N 29°37' W 094°58'3 6.3
2017-Oct-17 00:00N 29°37' W 095°01'0 0.4
2017-Oct-16 23:31N 29°36' W 095°01'0 0.1
2017-Oct-16 23:00N 29°36' W 095°01'0 0.0
2017-Oct-16 22:30N 29°36' W 095°01'0 0.0
2017-Oct-16 22:00N 29°36' W 095°01'0 0.0
2017-Oct-16 21:30N 29°36' W 095°01'0 0.0
2017-Oct-16 21:00N 29°36' W 095°01'0 0.0
2017-Oct-16 20:30N 29°36' W 095°01'0 0.0
2017-Oct-16 20:00N 29°36' W 095°01'0 0.0
2017-Oct-16 19:30N 29°36' W 095°01'0 0.0
2017-Oct-16 19:00N 29°36' W 095°01'0 0.0
2017-Oct-16 18:30N 29°36' W 095°01'0 0.0
2017-Oct-16 18:00N 29°36' W 095°01'0 0.0
2017-Oct-16 17:30N 29°36' W 095°01'0 0.0
2017-Oct-16 17:00N 29°36' W 095°01'0 0.0
2017-Oct-16 16:30N 29°36' W 095°01'0 0.0
2017-Oct-16 16:00N 29°36' W 095°01'0 0.0
2017-Oct-16 15:30N 29°36' W 095°01'0 0.0
2017-Oct-16 15:00N 29°36' W 095°01'0 0.0
2017-Oct-16 14:30N 29°36' W 095°01'0 0.0
2017-Oct-16 13:30N 29°36' W 095°01'0 0.0
2017-Oct-16 13:00N 29°36' W 095°01'0 0.3
2017-Oct-16 12:26N 29°37' W 095°01'0 0.0
2017-Oct-16 12:00N 29°37' W 095°01'0 0.0
2017-Oct-16 11:24N 29°37' W 095°01'0 0.0
2017-Oct-16 10:53N 29°37' W 095°01'0 0.0
2017-Oct-16 10:24N 29°37' W 095°01'0 0.0
2017-Oct-16 09:58N 29°37' W 095°01'0 0.0
2017-Oct-16 09:30N 29°37' W 095°01'2 3.5
2017-Oct-16 09:00N 29°37' W 094°59'3 5.6
2017-Oct-16 08:30N 29°40' W 094°58'5 1.0
2017-Oct-16 03:28N 29°44' W 095°02'3 6.5
2017-Oct-16 03:00N 29°42' W 094°59'3 6.1
2017-Oct-16 02:30N 29°40' W 094°56'2 3.3
2017-Oct-16 01:58N 29°42' W 094°56'1 0.1
2017-Oct-15 14:57N 29°42' W 094°55'4 4.6
2017-Oct-15 13:59N 29°42' W 095°00'3 0.1
2017-Oct-13 22:16N 29°44' W 095°03'2 6.6
2017-Oct-13 21:57N 29°42' W 095°01'3 6.6
2017-Oct-13 21:30N 29°40' W 094°59'4 8.1
2017-Oct-13 21:00N 29°36' W 094°57'4 8.4
2017-Oct-13 20:30N 29°33' W 094°54'65 5.3
2017-Oct-13 08:18N 30°02' W 093°48'0 0.0
2017-Oct-13 08:00N 30°02' W 093°48'0 0.0
2017-Oct-13 07:30N 30°02' W 093°48'0 0.0
2017-Oct-13 06:56N 30°02' W 093°48'  
2017-Oct-09 01:22N 29°55' W 093°53'3 9.2
2017-Oct-09 00:59N 29°53' W 093°55'56 6.0
2017-Oct-08 15:43N 29°34' W 094°55'2 8.4
2017-Oct-08 15:30N 29°36' W 094°57'4 8.2
2017-Oct-08 15:01N 29°39' W 094°58'4 7.9
2017-Oct-08 14:30N 29°43' W 095°01'  

Dump ship's entire track history